Baghdad, Iraq

5:34 PM AST on July 26, 2016 (GMT +0300)
Baghdad International Air | | Change Station

Elev 115 ft 33.26 °N, 44.23 °E | Updated 4 minutes ago

Clear
Clear
113 °F
Feels Like 113 °F
N
4
Wind Variable Wind from Variable

Today
High -- | Low -- °F
--% Chance of Precip.
Yesterday
High -- | Low -- °F
Precip. -- in
Pressure 29.47 in
Visibility 6.2 miles
Clouds
Dew Point 50 °F
Humidity 13%
Rainfall 0.00 in
Snow Depth Not available.
5:11 AM 7:06 PM
Waning Gibbous, 54% visible
METAR ORBI 261430Z VRB03KT 9999 4200 NSC 45/10 Q0998
Pressure 29.47 in
Visibility 6.2 miles
Clouds
Dew Point 50 °F
Humidity 13%
Rainfall 0.00 in
Snow Depth Not available.
5:11 AM 7:06 PM
Waning Gibbous, 54% visible
METAR ORBI 261430Z VRB03KT 9999 4200 NSC 45/10 Q0998

10-Day Weather Forecast

No radar image for this location.
×

Almanac

Astronomy

Jul. 26, 2016 Rise Set
Actual Time
Civil Twilight
Nautical Twilight
Astronomical Twilight
Moon
Length of Visible Light
Length of Day
Tomorrow will be .
, % of the Moon is Illuminated

Today's Extremes

Country Highs Country Lows

Community

WunderPhotos

Upload Photos

1,927,590 photos uploaded!

WunderBlog® & News

Nearby

Air Quality

  Air Quality AQ Index Pollutant
Not available.

Snow Depth

Station Depth Elevation

Earthquake Activity

City Distance Mag. Time & Date
Minimum magnitude displayed is 2.5.

Coastal Water Temperatures

Place Temperature

Stations

Nearby Weather Stations

Station Location Temp. Windchill Dew Point Humidity Wind Precip. Elev Updated Type